sensor_id;sensor_type;location;lat;lon;timestamp;P1;durP1;ratioP1;P2;durP2;ratioP2
55350;SDS011;62194;49.480;10.986;2023-03-07T00:00:04;18.87;;;10.97;;
55350;SDS011;62194;49.480;10.986;2023-03-07T00:00:10;18.77;;;10.90;;
55350;SDS011;62194;49.480;10.986;2023-03-07T00:00:18;19.60;;;11.30;;
55350;SDS011;62194;49.480;10.986;2023-03-07T00:00:24;19.30;;;11.37;;
55350;SDS011;62194;49.480;10.986;2023-03-07T00:00:30;19.50;;;11.70;;
55350;SDS011;62194;49.480;10.986;2023-03-07T00:00:35;19.23;;;11.90;;
55350;SDS011;62194;49.480;10.986;2023-03-07T00:00:41;18.90;;;11.93;;
55350;SDS011;62194;49.480;10.986;2023-03-07T00:00:47;18.25;;;11.77;;
55350;SDS011;62194;49.480;10.986;2023-03-07T00:00:52;18.25;;;11.70;;
55350;SDS011;62194;49.480;10.986;2023-03-07T00:00:57;18.50;;;11.77;;
55350;SDS011;62194;49.480;10.986;2023-03-07T00:01:03;18.53;;;11.83;;
55350;SDS011;62194;49.480;10.986;2023-03-07T00:01:08;19.25;;;11.88;;
55350;SDS011;62194;49.480;10.986;2023-03-07T00:01:32;17.80;;;11.17;;
55350;SDS011;62194;49.480;10.986;2023-03-07T00:01:38;17.42;;;11.07;;
55350;SDS011;62194;49.480;10.986;2023-03-07T00:01:43;17.43;;;11.17;;
55350;SDS011;62194;49.480;10.986;2023-03-07T00:01:49;17.45;;;11.10;;
55350;SDS011;62194;49.480;10.986;2023-03-07T00:01:55;17.80;;;11.13;;
55350;SDS011;62194;49.480;10.986;2023-03-07T00:02:00;18.67;;;11.20;;
55350;SDS011;62194;49.480;10.986;2023-03-07T00:02:06;19.00;;;11.00;;
55350;SDS011;62194;49.480;10.986;2023-03-07T00:02:11;19.23;;;10.97;;
55350;SDS011;62194;49.480;10.986;2023-03-07T00:02:16;19.93;;;11.13;;
55350;SDS011;62194;49.480;10.986;2023-03-07T00:02:22;20.03;;;11.27;;
55350;SDS011;62194;49.480;10.986;2023-03-07T00:02:27;19.48;;;11.45;;
55350;SDS011;62194;49.480;10.986;2023-03-07T00:02:32;18.97;;;11.70;;
55350;SDS011;62194;49.480;10.986;2023-03-07T00:02:38;18.75;;;11.73;;
55350;SDS011;62194;49.480;10.986;2023-03-07T00:02:43;18.17;;;11.60;;
55350;SDS011;62194;49.480;10.986;2023-03-07T00:02:51;18.07;;;11.60;;
55350;SDS011;62194;49.480;10.986;2023-03-07T00:02:56;18.07;;;11.53;;
55350;SDS011;62194;49.480;10.986;2023-03-07T00:03:01;17.83;;;11.43;;
55350;SDS011;62194;49.480;10.986;2023-03-07T00:03:08;18.60;;;11.80;;
55350;SDS011;62194;49.480;10.986;2023-03-07T00:03:15;18.43;;;11.60;;
55350;SDS011;62194;49.480;10.986;2023-03-07T00:03:22;18.48;;;11.68;;
55350;SDS011;62194;49.480;10.986;2023-03-07T00:03:27;17.97;;;11.57;;
55350;SDS011;62194;49.480;10.986;2023-03-07T00:03:32;18.13;;;11.67;;
55350;SDS011;62194;49.480;10.986;2023-03-07T00:03:38;17.40;;;11.35;;
55350;SDS011;62194;49.480;10.986;2023-03-07T00:03:43;17.63;;;11.57;;
55350;SDS011;62194;49.480;10.986;2023-03-07T00:03:48;18.15;;;11.70;;
55350;SDS011;62194;49.480;10.986;2023-03-07T00:03:54;18.30;;;11.57;;
55350;SDS011;62194;49.480;10.986;2023-03-07T00:04:00;18.60;;;11.48;;
55350;SDS011;62194;49.480;10.986;2023-03-07T00:04:06;18.45;;;11.13;;
55350;SDS011;62194;49.480;10.986;2023-03-07T00:04:11;17.93;;;10.87;;
55350;SDS011;62194;49.480;10.986;2023-03-07T00:04:16;17.38;;;10.73;;
55350;SDS011;62194;49.480;10.986;2023-03-07T00:04:21;16.83;;;10.53;;
55350;SDS011;62194;49.480;10.986;2023-03-07T00:04:27;16.83;;;10.60;;
55350;SDS011;62194;49.480;10.986;2023-03-07T00:04:32;17.15;;;10.75;;
55350;SDS011;62194;49.480;10.986;2023-03-07T00:04:38;17.43;;;10.80;;
55350;SDS011;62194;49.480;10.986;2023-03-07T00:04:44;17.93;;;10.97;;
55350;SDS011;62194;49.480;10.986;2023-03-07T00:04:50;19.50;;;11.40;;
55350;SDS011;62194;49.480;10.986;2023-03-07T00:04:55;19.50;;;11.35;;
55350;SDS011;62194;49.480;10.986;2023-03-07T00:05:00;19.47;;;11.37;;
55350;SDS011;62194;49.480;10.986;2023-03-07T00:05:06;19.67;;;11.40;;
55350;SDS011;62194;49.480;10.986;2023-03-07T00:05:12;20.10;;;11.70;;
55350;SDS011;62194;49.480;10.986;2023-03-07T00:05:18;19.30;;;11.50;;
55350;SDS011;62194;49.480;10.986;2023-03-07T00:05:24;19.73;;;11.87;;
55350;SDS011;62194;49.480;10.986;2023-03-07T00:05:29;20.70;;;12.07;;
55350;SDS011;62194;49.480;10.986;2023-03-07T00:05:36;19.87;;;12.03;;
55350;SDS011;62194;49.480;10.986;2023-03-07T00:05:41;20.25;;;11.77;;
55350;SDS011;62194;49.480;10.986;2023-03-07T00:05:47;20.23;;;11.90;;
55350;SDS011;62194;49.480;10.986;2023-03-07T00:06:07;19.00;;;11.23;;
55350;SDS011;62194;49.480;10.986;2023-03-07T00:06:14;17.73;;;10.90;;
55350;SDS011;62194;49.480;10.986;2023-03-07T00:06:19;16.63;;;10.47;;
55350;SDS011;62194;49.480;10.986;2023-03-07T00:06:25;17.45;;;10.50;;
55350;SDS011;62194;49.480;10.986;2023-03-07T00:06:30;19.13;;;11.07;;
55350;SDS011;62194;49.480;10.986;2023-03-07T00:06:36;19.58;;;11.18;;
55350;SDS011;62194;49.480;10.986;2023-03-07T00:06:41;19.80;;;11.60;;
55350;SDS011;62194;49.480;10.986;2023-03-07T00:06:46;19.90;;;11.67;;
55350;SDS011;62194;49.480;10.986;2023-03-07T00:06:53;20.13;;;11.80;;
55350;SDS011;62194;49.480;10.986;2023-03-07T00:06:59;18.98;;;11.64;;
55350;SDS011;62194;49.480;10.986;2023-03-07T00:07:04;18.83;;;11.47;;
55350;SDS011;62194;49.480;10.986;2023-03-07T00:07:10;19.58;;;11.30;;
55350;SDS011;62194;49.480;10.986;2023-03-07T00:07:16;19.77;;;11.37;;
55350;SDS011;62194;49.480;10.986;2023-03-07T00:07:21;19.95;;;11.45;;
55350;SDS011;62194;49.480;10.986;2023-03-07T00:07:26;20.10;;;11.70;;
55350;SDS011;62194;49.480;10.986;2023-03-07T00:07:31;19.63;;;11.47;;
55350;SDS011;62194;49.480;10.986;2023-03-07T00:07:37;18.75;;;11.48;;
55350;SDS011;62194;49.480;10.986;2023-03-07T00:07:43;17.75;;;11.25;;
55350;SDS011;62194;49.480;10.986;2023-03-07T00:07:48;17.53;;;11.33;;
55350;SDS011;62194;49.480;10.986;2023-03-07T00:07:53;16.92;;;10.82;;
55350;SDS011;62194;49.480;10.986;2023-03-07T00:07:59;16.87;;;11.10;;
55350;SDS011;62194;49.480;10.986;2023-03-07T00:08:04;17.47;;;11.17;;
55350;SDS011;62194;49.480;10.986;2023-03-07T00:08:10;17.85;;;11.07;;
55350;SDS011;62194;49.480;10.986;2023-03-07T00:08:15;18.17;;;11.17;;
55350;SDS011;62194;49.480;10.986;2023-03-07T00:08:20;18.52;;;11.02;;
55350;SDS011;62194;49.480;10.986;2023-03-07T00:08:26;18.60;;;11.00;;
55350;SDS011;62194;49.480;10.986;2023-03-07T00:08:31;18.60;;;10.80;;
55350;SDS011;62194;49.480;10.986;2023-03-07T00:08:37;18.70;;;10.98;;
55350;SDS011;62194;49.480;10.986;2023-03-07T00:08:42;19.63;;;11.13;;
55350;SDS011;62194;49.480;10.986;2023-03-07T00:08:48;19.52;;;11.07;;
55350;SDS011;62194;49.480;10.986;2023-03-07T00:08:56;19.07;;;11.17;;
55350;SDS011;62194;49.480;10.986;2023-03-07T00:09:03;19.00;;;11.20;;
55350;SDS011;62194;49.480;10.986;2023-03-07T00:09:08;18.75;;;11.30;;
55350;SDS011;62194;49.480;10.986;2023-03-07T00:09:14;18.43;;;11.47;;
55350;SDS011;62194;49.480;10.986;2023-03-07T00:09:19;18.67;;;11.60;;
55350;SDS011;62194;49.480;10.986;2023-03-07T00:09:24;19.08;;;11.85;;
55350;SDS011;62194;49.480;10.986;2023-03-07T00:09:30;19.07;;;12.00;;
55350;SDS011;62194;49.480;10.986;2023-03-07T00:09:35;19.60;;;12.07;;
55350;SDS011;62194;49.480;10.986;2023-03-07T00:09:40;19.67;;;11.80;;
55350;SDS011;62194;49.480;10.986;2023-03-07T00:09:46;19.33;;;11.80;;
55350;SDS011;62194;49.480;10.986;2023-03-07T00:09:52;19.25;;;11.75;;
55350;SDS011;62194;49.480;10.986;2023-03-07T00:09:57;20.03;;;11.80;;
55350;SDS011;62194;49.480;10.986;2023-03-07T00:10:02;20.75;;;12.18;;
55350;SDS011;62194;49.480;10.986;2023-03-07T00:10:08;19.90;;;12.23;;
55350;SDS011;62194;49.480;10.986;2023-03-07T00:10:14;20.30;;;12.17;;
55350;SDS011;62194;49.480;10.986;2023-03-07T00:10:19;20.52;;;12.15;;
55350;SDS011;62194;49.480;10.986;2023-03-07T00:10:24;20.97;;;12.23;;
55350;SDS011;62194;49.480;10.986;2023-03-07T00:10:30;19.90;;;11.90;;
55350;SDS011;62194;49.480;10.986;2023-03-07T00:10:35;20.77;;;11.70;;
55350;SDS011;62194;49.480;10.986;2023-03-07T00:10:40;21.23;;;11.80;;
55350;SDS011;62194;49.480;10.986;2023-03-07T00:10:46;20.57;;;11.43;;
55350;SDS011;62194;49.480;10.986;2023-03-07T00:10:51;20.25;;;11.13;;
55350;SDS011;62194;49.480;10.986;2023-03-07T00:11:00;19.40;;;11.20;;
55350;SDS011;62194;49.480;10.986;2023-03-07T00:11:07;17.86;;;10.92;;
55350;SDS011;62194;49.480;10.986;2023-03-07T00:11:13;17.80;;;10.76;;
55350;SDS011;62194;49.480;10.986;2023-03-07T00:11:18;17.93;;;11.03;;
55350;SDS011;62194;49.480;10.986;2023-03-07T00:11:24;18.40;;;11.23;;
55350;SDS011;62194;49.480;10.986;2023-03-07T00:11:30;19.73;;;11.40;;
55350;SDS011;62194;49.480;10.986;2023-03-07T00:11:35;19.87;;;11.70;;
55350;SDS011;62194;49.480;10.986;2023-03-07T00:11:41;19.70;;;11.73;;
55350;SDS011;62194;49.480;10.986;2023-03-07T00:11:46;19.38;;;11.55;;
55350;SDS011;62194;49.480;10.986;2023-03-07T00:11:51;18.83;;;11.37;;
55350;SDS011;62194;49.480;10.986;2023-03-07T00:11:57;18.33;;;11.40;;
55350;SDS011;62194;49.480;10.986;2023-03-07T00:12:02;17.58;;;11.35;;
55350;SDS011;62194;49.480;10.986;2023-03-07T00:12:08;16.90;;;11.18;;
55350;SDS011;62194;49.480;10.986;2023-03-07T00:12:14;17.63;;;11.40;;
55350;SDS011;62194;49.480;10.986;2023-03-07T00:12:20;17.77;;;11.43;;
55350;SDS011;62194;49.480;10.986;2023-03-07T00:12:26;17.97;;;11.47;;
55350;SDS011;62194;49.480;10.986;2023-03-07T00:12:31;17.73;;;11.50;;
55350;SDS011;62194;49.480;10.986;2023-03-07T00:12:36;18.37;;;11.67;;
55350;SDS011;62194;49.480;10.986;2023-03-07T00:12:42;18.17;;;11.60;;
55350;SDS011;62194;49.480;10.986;2023-03-07T00:12:47;18.42;;;11.70;;
55350;SDS011;62194;49.480;10.986;2023-03-07T00:12:52;18.67;;;11.67;;
55350;SDS011;62194;49.480;10.986;2023-03-07T00:12:57;18.77;;;11.67;;
55350;SDS011;62194;49.480;10.986;2023-03-07T00:13:03;18.90;;;11.60;;
55350;SDS011;62194;49.480;10.986;2023-03-07T00:13:08;19.23;;;11.80;;
55350;SDS011;62194;49.480;10.986;2023-03-07T00:13:14;18.95;;;11.77;;
55350;SDS011;62194;49.480;10.986;2023-03-07T00:13:19;19.40;;;11.87;;
55350;SDS011;62194;49.480;10.986;2023-03-07T00:13:24;19.47;;;11.87;;
55350;SDS011;62194;49.480;10.986;2023-03-07T00:13:30;19.07;;;11.83;;
55350;SDS011;62194;49.480;10.986;2023-03-07T00:13:37;18.62;;;11.56;;
55350;SDS011;62194;49.480;10.986;2023-03-07T00:13:42;18.20;;;11.40;;
55350;SDS011;62194;49.480;10.986;2023-03-07T00:13:48;17.30;;;11.27;;
55350;SDS011;62194;49.480;10.986;2023-03-07T00:13:53;17.23;;;11.10;;
55350;SDS011;62194;49.480;10.986;2023-03-07T00:13:59;18.45;;;11.35;;
55350;SDS011;62194;49.480;10.986;2023-03-07T00:14:05;19.42;;;11.52;;
55350;SDS011;62194;49.480;10.986;2023-03-07T00:14:13;20.53;;;11.63;;
55350;SDS011;62194;49.480;10.986;2023-03-07T00:14:18;20.63;;;11.83;;
55350;SDS011;62194;49.480;10.986;2023-03-07T00:14:23;20.23;;;12.02;;
55350;SDS011;62194;49.480;10.986;2023-03-07T00:14:29;19.43;;;12.03;;
55350;SDS011;62194;49.480;10.986;2023-03-07T00:14:34;19.00;;;11.97;;
55350;SDS011;62194;49.480;10.986;2023-03-07T00:14:40;17.73;;;11.82;;
55350;SDS011;62194;49.480;10.986;2023-03-07T00:14:45;17.73;;;11.73;;
55350;SDS011;62194;49.480;10.986;2023-03-07T00:14:50;18.20;;;11.70;;
55350;SDS011;62194;49.480;10.986;2023-03-07T00:14:55;18.20;;;11.55;;
55350;SDS011;62194;49.480;10.986;2023-03-07T00:15:01;18.23;;;11.17;;
55350;SDS011;62194;49.480;10.986;2023-03-07T00:15:06;18.30;;;11.27;;
55350;SDS011;62194;49.480;10.986;2023-03-07T00:15:12;20.00;;;11.82;;
55350;SDS011;62194;49.480;10.986;2023-03-07T00:15:17;19.48;;;11.52;;
55350;SDS011;62194;49.480;10.986;2023-03-07T00:15:23;19.30;;;11.47;;
55350;SDS011;62194;49.480;10.986;2023-03-07T00:15:28;18.93;;;11.47;;
55350;SDS011;62194;49.480;10.986;2023-03-07T00:15:36;19.13;;;11.52;;
55350;SDS011;62194;49.480;10.986;2023-03-07T00:15:41;18.20;;;10.93;;
55350;SDS011;62194;49.480;10.986;2023-03-07T00:15:47;19.00;;;11.50;;
55350;SDS011;62194;49.480;10.986;2023-03-07T00:15:52;19.20;;;11.57;;
55350;SDS011;62194;49.480;10.986;2023-03-07T00:16:05;19.42;;;11.70;;
55350;SDS011;62194;49.480;10.986;2023-03-07T00:16:13;18.75;;;11.68;;
55350;SDS011;62194;49.480;10.986;2023-03-07T00:16:21;18.30;;;11.80;;
55350;SDS011;62194;49.480;10.986;2023-03-07T00:16:28;18.22;;;11.74;;
55350;SDS011;62194;49.480;10.986;2023-03-07T00:16:33;19.42;;;11.90;;
55350;SDS011;62194;49.480;10.986;2023-03-07T00:16:39;20.10;;;11.87;;
55350;SDS011;62194;49.480;10.986;2023-03-07T00:16:44;20.00;;;11.63;;
55350;SDS011;62194;49.480;10.986;2023-03-07T00:16:49;19.77;;;11.47;;
55350;SDS011;62194;49.480;10.986;2023-03-07T00:16:55;19.83;;;11.48;;
55350;SDS011;62194;49.480;10.986;2023-03-07T00:17:01;19.20;;;11.20;;
55350;SDS011;62194;49.480;10.986;2023-03-07T00:17:06;17.88;;;11.32;;
55350;SDS011;62194;49.480;10.986;2023-03-07T00:17:12;17.73;;;11.30;;
55350;SDS011;62194;49.480;10.986;2023-03-07T00:17:17;17.48;;;11.25;;
55350;SDS011;62194;49.480;10.986;2023-03-07T00:17:22;17.90;;;11.27;;
55350;SDS011;62194;49.480;10.986;2023-03-07T00:17:28;18.23;;;11.37;;
55350;SDS011;62194;49.480;10.986;2023-03-07T00:17:36;18.65;;;11.40;;
55350;SDS011;62194;49.480;10.986;2023-03-07T00:17:42;18.87;;;11.37;;
55350;SDS011;62194;49.480;10.986;2023-03-07T00:17:48;19.45;;;11.70;;
55350;SDS011;62194;49.480;10.986;2023-03-07T00:17:53;19.07;;;11.63;;
55350;SDS011;62194;49.480;10.986;2023-03-07T00:17:59;19.17;;;11.87;;
55350;SDS011;62194;49.480;10.986;2023-03-07T00:18:04;19.38;;;11.85;;
55350;SDS011;62194;49.480;10.986;2023-03-07T00:18:11;19.40;;;11.63;;
55350;SDS011;62194;49.480;10.986;2023-03-07T00:18:16;18.87;;;11.33;;
55350;SDS011;62194;49.480;10.986;2023-03-07T00:18:21;18.80;;;11.43;;
55350;SDS011;62194;49.480;10.986;2023-03-07T00:18:28;17.90;;;11.13;;
55350;SDS011;62194;49.480;10.986;2023-03-07T00:18:34;16.80;;;10.80;;
55350;SDS011;62194;49.480;10.986;2023-03-07T00:18:40;16.30;;;10.90;;
55350;SDS011;62194;49.480;10.986;2023-03-07T00:18:45;16.65;;;10.98;;
55350;SDS011;62194;49.480;10.986;2023-03-07T00:18:51;16.67;;;11.30;;
55350;SDS011;62194;49.480;10.986;2023-03-07T00:18:58;17.83;;;11.60;;
55350;SDS011;62194;49.480;10.986;2023-03-07T00:19:04;19.73;;;12.17;;
55350;SDS011;62194;49.480;10.986;2023-03-07T00:19:12;19.47;;;12.13;;
55350;SDS011;62194;49.480;10.986;2023-03-07T00:19:17;19.60;;;12.17;;
55350;SDS011;62194;49.480;10.986;2023-03-07T00:19:22;19.07;;;11.80;;
55350;SDS011;62194;49.480;10.986;2023-03-07T00:19:28;18.85;;;11.77;;
55350;SDS011;62194;49.480;10.986;2023-03-07T00:19:33;17.73;;;11.60;;
55350;SDS011;62194;49.480;10.986;2023-03-07T00:19:40;17.20;;;11.27;;
55350;SDS011;62194;49.480;10.986;2023-03-07T00:19:46;16.93;;;11.03;;
55350;SDS011;62194;49.480;10.986;2023-03-07T00:19:51;17.08;;;10.93;;
55350;SDS011;62194;49.480;10.986;2023-03-07T00:19:57;16.50;;;10.63;;
55350;SDS011;62194;49.480;10.986;2023-03-07T00:20:03;16.83;;;10.57;;
55350;SDS011;62194;49.480;10.986;2023-03-07T00:20:11;17.52;;;10.80;;
55350;SDS011;62194;49.480;10.986;2023-03-07T00:20:18;17.80;;;11.27;;
55350;SDS011;62194;49.480;10.986;2023-03-07T00:20:24;17.77;;;11.40;;
55350;SDS011;62194;49.480;10.986;2023-03-07T00:20:29;18.23;;;11.97;;
55350;SDS011;62194;49.480;10.986;2023-03-07T00:20:34;18.23;;;12.00;;
55350;SDS011;62194;49.480;10.986;2023-03-07T00:20:39;18.40;;;12.13;;
55350;SDS011;62194;49.480;10.986;2023-03-07T00:20:45;18.73;;;12.00;;
55350;SDS011;62194;49.480;10.986;2023-03-07T00:21:01;19.03;;;11.57;;
55350;SDS011;62194;49.480;10.986;2023-03-07T00:21:11;18.80;;;11.20;;
55350;SDS011;62194;49.480;10.986;2023-03-07T00:21:19;18.70;;;11.03;;
55350;SDS011;62194;49.480;10.986;2023-03-07T00:21:26;18.40;;;11.17;;
55350;SDS011;62194;49.480;10.986;2023-03-07T00:21:35;19.38;;;11.48;;
55350;SDS011;62194;49.480;10.986;2023-03-07T00:21:41;20.23;;;11.85;;
55350;SDS011;62194;49.480;10.986;2023-03-07T00:21:46;19.73;;;11.97;;
55350;SDS011;62194;49.480;10.986;2023-03-07T00:21:51;19.48;;;11.95;;
55350;SDS011;62194;49.480;10.986;2023-03-07T00:21:57;19.07;;;11.63;;
55350;SDS011;62194;49.480;10.986;2023-03-07T00:22:02;18.33;;;11.27;;
55350;SDS011;62194;49.480;10.986;2023-03-07T00:22:08;18.10;;;11.27;;
55350;SDS011;62194;49.480;10.986;2023-03-07T00:22:14;17.78;;;10.92;;
55350;SDS011;62194;49.480;10.986;2023-03-07T00:22:20;17.87;;;10.80;;
55350;SDS011;62194;49.480;10.986;2023-03-07T00:22:25;18.15;;;10.85;;
55350;SDS011;62194;49.480;10.986;2023-03-07T00:22:30;18.00;;;10.87;;
55350;SDS011;62194;49.480;10.986;2023-03-07T00:22:36;17.90;;;10.90;;
55350;SDS011;62194;49.480;10.986;2023-03-07T00:22:42;17.45;;;10.90;;
55350;SDS011;62194;49.480;10.986;2023-03-07T00:22:48;17.73;;;11.20;;
55350;SDS011;62194;49.480;10.986;2023-03-07T00:22:53;17.60;;;11.57;;
55350;SDS011;62194;49.480;10.986;2023-03-07T00:22:58;17.97;;;11.67;;
55350;SDS011;62194;49.480;10.986;2023-03-07T00:23:03;17.67;;;11.50;;
55350;SDS011;62194;49.480;10.986;2023-03-07T00:23:09;18.13;;;11.65;;
55350;SDS011;62194;49.480;10.986;2023-03-07T00:23:14;18.17;;;11.67;;
55350;SDS011;62194;49.480;10.986;2023-03-07T00:23:19;18.83;;;11.87;;
55350;SDS011;62194;49.480;10.986;2023-03-07T00:23:25;18.50;;;11.53;;
55350;SDS011;62194;49.480;10.986;2023-03-07T00:23:31;18.42;;;11.63;;
55350;SDS011;62194;49.480;10.986;2023-03-07T00:23:38;18.63;;;11.60;;
55350;SDS011;62194;49.480;10.986;2023-03-07T00:23:44;18.77;;;11.87;;
55350;SDS011;62194;49.480;10.986;2023-03-07T00:23:51;18.50;;;11.50;;
55350;SDS011;62194;49.480;10.986;2023-03-07T00:23:57;18.70;;;11.45;;
55350;SDS011;62194;49.480;10.986;2023-03-07T00:24:02;19.07;;;11.63;;
55350;SDS011;62194;49.480;10.986;2023-03-07T00:24:08;18.92;;;11.40;;
55350;SDS011;62194;49.480;10.986;2023-03-07T00:24:14;18.75;;;11.13;;
55350;SDS011;62194;49.480;10.986;2023-03-07T00:24:19;18.80;;;11.20;;
55350;SDS011;62194;49.480;10.986;2023-03-07T00:24:24;19.25;;;11.55;;
55350;SDS011;62194;49.480;10.986;2023-03-07T00:24:30;19.10;;;11.63;;
55350;SDS011;62194;49.480;10.986;2023-03-07T00:24:35;19.23;;;12.07;;
55350;SDS011;62194;49.480;10.986;2023-03-07T00:24:41;18.90;;;12.20;;
55350;SDS011;62194;49.480;10.986;2023-03-07T00:24:46;18.17;;;12.20;;
55350;SDS011;62194;49.480;10.986;2023-03-07T00:24:52;18.20;;;12.32;;
55350;SDS011;62194;49.480;10.986;2023-03-07T00:24:57;18.17;;;12.13;;
55350;SDS011;62194;49.480;10.986;2023-03-07T00:25:03;18.80;;;12.03;;
55350;SDS011;62194;49.480;10.986;2023-03-07T00:25:09;18.55;;;11.82;;
55350;SDS011;62194;49.480;10.986;2023-03-07T00:25:14;18.33;;;11.45;;
55350;SDS011;62194;49.480;10.986;2023-03-07T00:25:20;18.13;;;11.37;;
55350;SDS011;62194;49.480;10.986;2023-03-07T00:25:25;18.37;;;11.40;;
55350;SDS011;62194;49.480;10.986;2023-03-07T00:25:30;17.50;;;11.23;;
55350;SDS011;62194;49.480;10.986;2023-03-07T00:25:36;17.23;;;11.10;;
55350;SDS011;62194;49.480;10.986;2023-03-07T00:25:41;17.10;;;11.07;;
55350;SDS011;62194;49.480;10.986;2023-03-07T00:25:54;17.63;;;11.55;;
55350;SDS011;62194;49.480;10.986;2023-03-07T00:26:05;17.85;;;11.50;;
55350;SDS011;62194;49.480;10.986;2023-03-07T00:26:19;19.00;;;11.53;;
55350;SDS011;62194;49.480;10.986;2023-03-07T00:26:26;18.47;;;11.57;;
55350;SDS011;62194;49.480;10.986;2023-03-07T00:26:31;17.83;;;11.32;;
55350;SDS011;62194;49.480;10.986;2023-03-07T00:26:37;17.37;;;11.03;;
55350;SDS011;62194;49.480;10.986;2023-03-07T00:26:43;17.87;;;11.20;;
55350;SDS011;62194;49.480;10.986;2023-03-07T00:26:48;18.70;;;11.57;;
55350;SDS011;62194;49.480;10.986;2023-03-07T00:26:54;18.87;;;11.40;;
55350;SDS011;62194;49.480;10.986;2023-03-07T00:26:59;18.80;;;11.55;;
55350;SDS011;62194;49.480;10.986;2023-03-07T00:27:04;18.83;;;11.67;;
55350;SDS011;62194;49.480;10.986;2023-03-07T00:27:10;18.05;;;11.68;;
55350;SDS011;62194;49.480;10.986;2023-03-07T00:27:15;17.43;;;11.60;;
55350;SDS011;62194;49.480;10.986;2023-03-07T00:27:21;17.00;;;11.40;;
55350;SDS011;62194;49.480;10.986;2023-03-07T00:27:26;17.07;;;11.37;;
55350;SDS011;62194;49.480;10.986;2023-03-07T00:27:33;17.70;;;11.57;;
55350;SDS011;62194;49.480;10.986;2023-03-07T00:27:39;17.63;;;11.60;;
55350;SDS011;62194;49.480;10.986;2023-03-07T00:27:45;18.65;;;11.80;;
55350;SDS011;62194;49.480;10.986;2023-03-07T00:27:50;19.45;;;12.32;;
55350;SDS011;62194;49.480;10.986;2023-03-07T00:27:55;19.77;;;12.63;;
55350;SDS011;62194;49.480;10.986;2023-03-07T00:28:00;19.83;;;12.80;;
55350;SDS011;62194;49.480;10.986;2023-03-07T00:28:06;19.60;;;12.60;;
55350;SDS011;62194;49.480;10.986;2023-03-07T00:28:11;19.65;;;12.60;;
55350;SDS011;62194;49.480;10.986;2023-03-07T00:28:16;19.87;;;12.53;;
55350;SDS011;62194;49.480;10.986;2023-03-07T00:28:21;21.03;;;12.33;;
55350;SDS011;62194;49.480;10.986;2023-03-07T00:28:27;20.73;;;11.88;;
55350;SDS011;62194;49.480;10.986;2023-03-07T00:28:33;21.20;;;11.77;;
55350;SDS011;62194;49.480;10.986;2023-03-07T00:28:38;21.58;;;11.65;;
55350;SDS011;62194;49.480;10.986;2023-03-07T00:28:47;21.33;;;11.32;;
55350;SDS011;62194;49.480;10.986;2023-03-07T00:28:54;20.07;;;11.10;;
55350;SDS011;62194;49.480;10.986;2023-03-07T00:29:00;20.37;;;11.53;;
55350;SDS011;62194;49.480;10.986;2023-03-07T00:29:05;19.70;;;11.57;;
55350;SDS011;62194;49.480;10.986;2023-03-07T00:29:12;18.77;;;11.43;;
55350;SDS011;62194;49.480;10.986;2023-03-07T00:29:17;19.17;;;11.83;;
55350;SDS011;62194;49.480;10.986;2023-03-07T00:29:22;18.90;;;12.03;;
55350;SDS011;62194;49.480;10.986;2023-03-07T00:29:28;18.73;;;11.85;;
55350;SDS011;62194;49.480;10.986;2023-03-07T00:29:33;19.03;;;11.73;;
55350;SDS011;62194;49.480;10.986;2023-03-07T00:29:38;19.53;;;11.87;;
55350;SDS011;62194;49.480;10.986;2023-03-07T00:29:44;19.73;;;12.15;;
55350;SDS011;62194;49.480;10.986;2023-03-07T00:29:49;18.27;;;11.63;;
55350;SDS011;62194;49.480;10.986;2023-03-07T00:29:54;18.63;;;11.50;;
55350;SDS011;62194;49.480;10.986;2023-03-07T00:30:00;17.77;;;11.18;;
55350;SDS011;62194;49.480;10.986;2023-03-07T00:30:06;17.42;;;10.95;;
55350;SDS011;62194;49.480;10.986;2023-03-07T00:30:11;17.52;;;10.82;;
55350;SDS011;62194;49.480;10.986;2023-03-07T00:30:17;17.40;;;10.70;;
55350;SDS011;62194;49.480;10.986;2023-03-07T00:30:22;17.60;;;10.83;;
55350;SDS011;62194;49.480;10.986;2023-03-07T00:30:27;17.90;;;11.23;;
55350;SDS011;62194;49.480;10.986;2023-03-07T00:30:33;18.27;;;11.53;;
55350;SDS011;62194;49.480;10.986;2023-03-07T00:30:38;18.67;;;11.80;;
55350;SDS011;62194;49.480;10.986;2023-03-07T00:30:43;18.47;;;11.90;;
55350;SDS011;62194;49.480;10.986;2023-03-07T00:30:48;18.33;;;11.88;;
55350;SDS011;62194;49.480;10.986;2023-03-07T00:30:54;18.20;;;11.83;;
55350;SDS011;62194;49.480;10.986;2023-03-07T00:31:04;17.77;;;11.70;;
55350;SDS011;62194;49.480;10.986;2023-03-07T00:31:11;17.63;;;11.65;;
55350;SDS011;62194;49.480;10.986;2023-03-07T00:31:17;17.55;;;11.63;;
55350;SDS011;62194;49.480;10.986;2023-03-07T00:31:23;17.83;;;11.52;;
55350;SDS011;62194;49.480;10.986;2023-03-07T00:31:28;18.35;;;11.80;;
55350;SDS011;62194;49.480;10.986;2023-03-07T00:31:34;18.33;;;11.63;;
55350;SDS011;62194;49.480;10.986;2023-03-07T00:31:39;18.38;;;11.50;;
55350;SDS011;62194;49.480;10.986;2023-03-07T00:31:45;19.77;;;11.63;;
55350;SDS011;62194;49.480;10.986;2023-03-07T00:31:52;20.23;;;11.60;;
55350;SDS011;62194;49.480;10.986;2023-03-07T00:31:57;19.93;;;11.33;;
55350;SDS011;62194;49.480;10.986;2023-03-07T00:32:03;19.60;;;11.20;;
55350;SDS011;62194;49.480;10.986;2023-03-07T00:32:08;19.98;;;11.27;;
55350;SDS011;62194;49.480;10.986;2023-03-07T00:32:13;18.87;;;11.50;;
55350;SDS011;62194;49.480;10.986;2023-03-07T00:32:19;18.33;;;11.47;;
55350;SDS011;62194;49.480;10.986;2023-03-07T00:32:24;18.98;;;11.80;;
55350;SDS011;62194;49.480;10.986;2023-03-07T00:32:30;19.07;;;11.80;;
55350;SDS011;62194;49.480;10.986;2023-03-07T00:32:36;19.02;;;11.63;;
55350;SDS011;62194;49.480;10.986;2023-03-07T00:32:41;18.33;;;11.30;;
55350;SDS011;62194;49.480;10.986;2023-03-07T00:32:46;18.15;;;11.15;;
55350;SDS011;62194;49.480;10.986;2023-03-07T00:32:51;17.57;;;10.90;;
55350;SDS011;62194;49.480;10.986;2023-03-07T00:32:57;17.13;;;10.83;;
55350;SDS011;62194;49.480;10.986;2023-03-07T00:33:02;17.27;;;11.15;;
55350;SDS011;62194;49.480;10.986;2023-03-07T00:33:08;17.63;;;11.43;;
55350;SDS011;62194;49.480;10.986;2023-03-07T00:33:13;18.58;;;11.73;;
55350;SDS011;62194;49.480;10.986;2023-03-07T00:33:18;18.60;;;11.70;;
55350;SDS011;62194;49.480;10.986;2023-03-07T00:33:24;19.13;;;12.20;;
55350;SDS011;62194;49.480;10.986;2023-03-07T00:33:29;18.92;;;12.05;;
55350;SDS011;62194;49.480;10.986;2023-03-07T00:33:34;19.30;;;12.10;;
55350;SDS011;62194;49.480;10.986;2023-03-07T00:33:40;18.65;;;11.88;;
55350;SDS011;62194;49.480;10.986;2023-03-07T00:33:46;18.90;;;12.10;;
55350;SDS011;62194;49.480;10.986;2023-03-07T00:33:51;18.52;;;11.82;;
55350;SDS011;62194;49.480;10.986;2023-03-07T00:33:57;18.77;;;11.65;;
55350;SDS011;62194;49.480;10.986;2023-03-07T00:34:02;18.20;;;11.47;;
55350;SDS011;62194;49.480;10.986;2023-03-07T00:34:08;17.77;;;11.20;;